createdAt,value
2019-02-23T00:00:14.599Z,99.90
2019-02-23T00:02:49.072Z,99.90
2019-02-23T00:05:22.580Z,99.90
2019-02-23T00:07:56.909Z,99.90
2019-02-23T00:10:32.769Z,99.90
2019-02-23T00:13:07.992Z,99.90
2019-02-23T00:15:42.622Z,99.90
2019-02-23T00:18:25.012Z,99.90
2019-02-23T00:20:58.223Z,99.90
2019-02-23T00:23:30.152Z,99.90
2019-02-23T00:26:03.038Z,99.90
2019-02-23T00:28:37.324Z,99.90
2019-02-23T00:31:09.174Z,99.90
2019-02-23T00:33:42.408Z,99.90
2019-02-23T00:36:15.338Z,99.90
2019-02-23T00:38:47.259Z,99.90
2019-02-23T00:41:20.287Z,99.90
2019-02-23T00:43:54.738Z,99.90
2019-02-23T00:46:28.258Z,99.90
2019-02-23T00:49:00.192Z,99.90
2019-02-23T00:51:33.106Z,99.90
2019-02-23T00:54:05.004Z,99.90
2019-02-23T00:56:39.324Z,99.90
2019-02-23T00:59:12.242Z,99.90
2019-02-23T01:01:45.369Z,99.90
2019-02-23T01:04:18.223Z,99.90
2019-02-23T01:06:57.939Z,99.90
2019-02-23T01:09:41.970Z,99.90
2019-02-23T01:12:16.516Z,99.90
2019-02-23T01:14:48.166Z,99.90
2019-02-23T01:17:19.967Z,99.90
2019-02-23T01:19:54.002Z,99.90
2019-02-23T01:22:26.900Z,99.90
2019-02-23T01:25:00.002Z,99.90
2019-02-23T01:27:33.055Z,99.90
2019-02-23T01:30:06.954Z,99.90
2019-02-23T01:32:38.811Z,99.90
2019-02-23T01:35:11.742Z,99.90
2019-02-23T01:37:45.980Z,99.90
2019-02-23T01:40:18.996Z,99.90
2019-02-23T01:42:50.863Z,99.90
2019-02-23T01:45:23.778Z,99.90
2019-02-23T01:47:56.654Z,99.90
2019-02-23T01:50:30.853Z,99.90
2019-02-23T01:53:05.886Z,99.90
2019-02-23T01:55:37.781Z,99.90
2019-02-23T01:58:09.656Z,99.90
2019-02-23T02:00:42.656Z,99.90
2019-02-23T02:03:16.056Z,99.90
2019-02-23T02:05:49.041Z,99.90
2019-02-23T02:08:22.382Z,99.90
2019-02-23T02:10:55.532Z,99.90
2019-02-23T02:13:29.417Z,99.90
2019-02-23T02:16:02.694Z,99.90
2019-02-23T02:18:37.023Z,99.90
2019-02-23T02:21:12.812Z,99.90
2019-02-23T02:23:48.518Z,99.90
2019-02-23T02:26:20.434Z,99.90
2019-02-23T02:28:53.466Z,99.90
2019-02-23T02:31:25.382Z,99.90
2019-02-23T02:34:14.613Z,99.90
2019-02-23T02:36:46.782Z,99.90
2019-02-23T02:39:18.644Z,99.90
2019-02-23T02:41:50.502Z,99.90
2019-02-23T02:44:22.431Z,99.90
2019-02-23T02:46:54.347Z,99.90
2019-02-23T02:49:26.152Z,99.90
2019-02-23T02:51:58.015Z,99.90
2019-02-23T02:54:32.265Z,99.90
2019-02-23T02:57:04.158Z,99.90
2019-02-23T02:59:38.763Z,99.90
2019-02-23T03:02:11.637Z,99.90
2019-02-23T03:04:45.107Z,99.90
2019-02-23T03:07:17.985Z,99.90
2019-02-23T03:09:50.898Z,99.90
2019-02-23T03:12:24.788Z,99.90
2019-02-23T03:14:56.674Z,99.90
2019-02-23T03:17:29.739Z,99.90
2019-02-23T03:20:01.832Z,99.90
2019-02-23T03:22:37.128Z,99.90
2019-02-23T03:25:10.059Z,99.90
2019-02-23T03:27:43.227Z,99.90
2019-02-23T03:30:16.528Z,99.90
2019-02-23T03:32:52.332Z,99.90
2019-02-23T03:35:27.103Z,99.90
2019-02-23T03:38:00.267Z,99.90
2019-02-23T03:40:34.467Z,99.90
2019-02-23T03:43:07.767Z,99.90
2019-02-23T03:45:42.451Z,99.90
2019-02-23T03:48:16.959Z,99.90
2019-02-23T03:50:51.238Z,99.90
2019-02-23T03:53:25.812Z,99.90
2019-02-23T03:55:59.296Z,99.90
2019-02-23T03:58:31.250Z,99.90
2019-02-23T04:01:04.535Z,99.90
2019-02-23T04:03:38.780Z,99.90
2019-02-23T04:06:10.659Z,99.90
2019-02-23T04:08:45.588Z,99.90
2019-02-23T04:11:18.735Z,99.90
2019-02-23T04:13:52.778Z,99.90
2019-02-23T04:16:24.676Z,99.90
2019-02-23T04:18:57.887Z,99.90
2019-02-23T04:21:29.846Z,99.90
2019-02-23T04:24:01.992Z,99.90
2019-02-23T04:26:36.485Z,99.90
2019-02-23T04:29:08.367Z,99.90
2019-02-23T04:31:41.580Z,99.90
2019-02-23T04:34:14.969Z,99.90
2019-02-23T04:36:48.371Z,99.90
2019-02-23T04:39:21.599Z,99.90
2019-02-23T04:41:53.478Z,99.90
2019-02-23T04:44:25.416Z,99.90
2019-02-23T04:46:57.339Z,99.90
2019-02-23T04:49:31.680Z,99.90
2019-02-23T04:52:05.784Z,99.90
2019-02-23T04:54:41.900Z,99.90
2019-02-23T04:57:13.721Z,99.90
2019-02-23T04:59:53.429Z,99.90
2019-02-23T05:02:25.419Z,99.90
2019-02-23T05:04:58.623Z,99.90
2019-02-23T05:07:31.748Z,99.90
2019-02-23T05:10:04.615Z,99.90
2019-02-23T05:12:38.879Z,99.90
2019-02-23T05:15:14.301Z,99.90
2019-02-23T05:17:47.442Z,99.90
2019-02-23T05:20:20.259Z,99.90
2019-02-23T05:22:52.211Z,99.90
2019-02-23T05:25:25.480Z,99.90
2019-02-23T05:27:58.327Z,99.90
2019-02-23T05:30:30.393Z,99.90
2019-02-23T05:33:06.063Z,99.90
2019-02-23T05:35:39.972Z,99.90
2019-02-23T05:38:11.985Z,99.90
2019-02-23T05:40:46.089Z,99.90
2019-02-23T05:43:19.254Z,99.90
2019-02-23T05:45:52.771Z,99.90
2019-02-23T05:48:28.488Z,99.90
2019-02-23T05:51:00.334Z,99.90
2019-02-23T05:53:34.970Z,99.90
2019-02-23T05:56:12.781Z,99.90
2019-02-23T05:58:45.233Z,99.90
2019-02-23T06:01:19.986Z,99.90
2019-02-23T06:03:53.179Z,99.90
2019-02-23T06:06:26.312Z,99.90
2019-02-23T06:08:59.215Z,99.90
2019-02-23T06:11:32.624Z,99.90
2019-02-23T06:14:05.513Z,99.90
2019-02-23T06:16:38.368Z,99.90
2019-02-23T06:19:12.831Z,99.90
2019-02-23T06:21:53.694Z,99.90
2019-02-23T06:24:19.272Z,99.90
2019-02-23T06:26:52.422Z,99.90
2019-02-23T06:29:24.293Z,99.90
2019-02-23T06:31:57.150Z,99.90
2019-02-23T06:34:31.271Z,99.90
2019-02-23T06:37:06.804Z,99.90
2019-02-23T06:39:39.874Z,99.90
2019-02-23T06:42:12.823Z,99.90
2019-02-23T06:44:51.752Z,99.90
2019-02-23T06:47:26.201Z,99.90
2019-02-23T06:49:59.335Z,99.90
2019-02-23T06:52:31.478Z,99.90
2019-02-23T06:55:03.441Z,99.90
2019-02-23T06:57:39.347Z,99.90
2019-02-23T07:00:13.519Z,99.90
2019-02-23T07:02:47.637Z,99.90
2019-02-23T07:05:22.158Z,99.90
2019-02-23T07:07:55.369Z,99.90
2019-02-23T07:10:30.201Z,99.90
2019-02-23T07:13:02.250Z,99.90
2019-02-23T07:15:35.435Z,99.90
2019-02-23T07:18:07.750Z,99.90
2019-02-23T07:20:44.326Z,99.90
2019-02-23T07:23:14.123Z,99.90
2019-02-23T07:25:48.074Z,99.90
2019-02-23T07:28:21.456Z,99.90
2019-02-23T07:30:54.517Z,99.90
2019-02-23T07:33:32.680Z,99.90
2019-02-23T07:36:00.557Z,99.90
2019-02-23T07:38:35.491Z,99.90
2019-02-23T07:41:07.537Z,99.90
2019-02-23T07:43:40.740Z,99.90
2019-02-23T07:46:13.963Z,99.90
2019-02-23T07:48:46.156Z,99.90
2019-02-23T07:51:19.800Z,99.90
2019-02-23T07:53:52.068Z,99.90
2019-02-23T07:56:26.933Z,99.90
2019-02-23T07:58:59.352Z,99.90
2019-02-23T08:01:31.949Z,99.90
2019-02-23T08:04:04.938Z,99.90
2019-02-23T08:06:39.158Z,99.90
2019-02-23T08:09:12.211Z,99.90
2019-02-23T08:11:44.615Z,99.90
2019-02-23T08:14:16.852Z,99.90
2019-02-23T08:16:56.556Z,99.90
2019-02-23T08:19:28.824Z,99.90
2019-02-23T08:22:01.069Z,99.90
2019-02-23T08:24:33.009Z,99.90
2019-02-23T08:27:05.110Z,99.90
2019-02-23T08:29:37.092Z,99.90
2019-02-23T08:32:10.740Z,99.90
2019-02-23T08:34:42.904Z,99.90
2019-02-23T08:37:15.099Z,99.90
2019-02-23T08:39:47.547Z,99.90
2019-02-23T08:42:20.686Z,99.90
2019-02-23T08:44:52.611Z,99.90
2019-02-23T08:47:24.528Z,99.90
2019-02-23T08:49:56.786Z,99.90
2019-02-23T08:52:29.766Z,99.90
2019-02-23T08:55:03.283Z,99.90
2019-02-23T08:57:36.333Z,99.90
2019-02-23T09:00:12.341Z,99.90
2019-02-23T09:02:45.758Z,99.90
2019-02-23T09:05:18.480Z,99.90
2019-02-23T09:07:52.107Z,99.90
2019-02-23T09:10:26.575Z,99.60
2019-02-23T09:12:58.725Z,98.90
2019-02-23T09:15:31.102Z,99.90
2019-02-23T09:18:03.056Z,98.10
2019-02-23T09:20:35.340Z,96.80
2019-02-23T09:23:08.835Z,96.40
2019-02-23T09:25:40.849Z,96.30
2019-02-23T09:28:14.153Z,96.10
2019-02-23T09:30:47.115Z,95.60
2019-02-23T09:33:19.120Z,95.80
2019-02-23T09:35:51.382Z,93.60
2019-02-23T09:38:23.482Z,94.30
2019-02-23T09:40:55.666Z,92.50
2019-02-23T09:43:28.946Z,92.00
2019-02-23T09:46:00.834Z,90.00
2019-02-23T09:48:33.251Z,87.90
2019-02-23T09:51:06.587Z,88.60
2019-02-23T09:53:40.408Z,88.10
2019-02-23T09:56:13.789Z,86.10
2019-02-23T09:58:48.137Z,86.00
2019-02-23T10:01:20.227Z,87.00
2019-02-23T10:03:52.291Z,82.00
2019-02-23T10:06:24.326Z,79.60
2019-02-23T10:08:56.503Z,78.90
2019-02-23T10:11:28.662Z,79.40
2019-02-23T10:14:00.730Z,78.10
2019-02-23T10:16:32.819Z,77.20
2019-02-23T10:19:06.223Z,75.30
2019-02-23T10:21:39.658Z,74.60
2019-02-23T10:24:12.988Z,74.80
2019-02-23T10:26:45.026Z,74.10
2019-02-23T10:29:17.392Z,73.80
2019-02-23T10:31:49.523Z,72.30
2019-02-23T10:34:21.696Z,71.10
2019-02-23T10:36:53.746Z,70.40
2019-02-23T10:39:26.063Z,66.70
2019-02-23T10:41:58.328Z,66.90
2019-02-23T10:44:31.401Z,66.70
2019-02-23T10:47:03.533Z,60.70
2019-02-23T10:49:35.719Z,60.90
2019-02-23T10:52:07.968Z,61.80
2019-02-23T10:54:41.503Z,59.90
2019-02-23T10:57:14.728Z,59.30
2019-02-23T10:59:48.433Z,57.70
2019-02-23T11:02:21.706Z,57.00
2019-02-23T11:04:54.877Z,55.10
2019-02-23T11:07:27.234Z,54.80
2019-02-23T11:10:01.875Z,54.50
2019-02-23T11:12:35.295Z,52.80
2019-02-23T11:15:09.573Z,53.60
2019-02-23T11:17:41.722Z,52.00
2019-02-23T11:20:14.651Z,50.30
2019-02-23T11:22:47.780Z,48.50
2019-02-23T11:25:19.707Z,49.40
2019-02-23T11:27:51.854Z,48.40
2019-02-23T11:30:26.468Z,48.90
2019-02-23T11:32:59.940Z,49.00
2019-02-23T11:35:32.228Z,48.70
2019-02-23T11:38:05.866Z,46.90
2019-02-23T11:40:37.907Z,46.90
2019-02-23T11:43:09.848Z,48.50
2019-02-23T11:45:41.920Z,45.80
2019-02-23T11:48:14.142Z,44.50
2019-02-23T11:50:46.323Z,44.90
2019-02-23T11:53:18.374Z,45.50
2019-02-23T11:55:51.611Z,44.50
2019-02-23T11:58:25.004Z,44.70
2019-02-23T12:00:58.211Z,45.00
2019-02-23T12:03:31.043Z,44.30
2019-02-23T12:06:03.014Z,43.30
2019-02-23T12:08:36.346Z,42.80
2019-02-23T12:11:08.462Z,41.30
2019-02-23T12:13:41.777Z,41.50
2019-02-23T12:16:14.133Z,41.80
2019-02-23T12:18:46.185Z,40.70
2019-02-23T12:21:18.293Z,41.20
2019-02-23T12:23:50.531Z,41.80
2019-02-23T12:26:22.938Z,40.30
2019-02-23T12:28:55.883Z,40.60
2019-02-23T12:31:28.083Z,42.10
2019-02-23T12:34:00.226Z,42.40
2019-02-23T12:36:33.891Z,42.00
2019-02-23T12:39:06.700Z,42.00
2019-02-23T12:41:40.357Z,42.30
2019-02-23T12:44:12.483Z,40.50
2019-02-23T12:46:44.507Z,42.30
2019-02-23T12:49:16.989Z,40.60
2019-02-23T12:51:50.399Z,40.00
2019-02-23T12:54:23.020Z,40.30
2019-02-23T12:56:56.239Z,40.50
2019-02-23T12:59:28.376Z,39.90
2019-02-23T13:02:00.876Z,40.00
2019-02-23T13:04:33.049Z,40.30
2019-02-23T13:07:04.999Z,38.00
2019-02-23T13:09:41.715Z,38.40
2019-02-23T13:13:03.496Z,37.80
2019-02-23T13:15:45.809Z,36.90
2019-02-23T13:18:55.843Z,39.10
2019-02-23T13:21:56.527Z,37.80
2019-02-23T13:25:09.087Z,38.40
2019-02-23T13:28:14.286Z,37.80
2019-02-23T13:31:24.263Z,37.40
2019-02-23T13:34:34.106Z,36.90
2019-02-23T13:37:23.081Z,37.30
2019-02-23T13:40:05.781Z,37.10
2019-02-23T13:43:21.085Z,36.60
2019-02-23T13:46:16.537Z,35.70
2019-02-23T13:49:15.079Z,35.30
2019-02-23T13:52:15.372Z,35.30
2019-02-23T13:55:29.358Z,35.30
2019-02-23T13:58:25.939Z,35.20
2019-02-23T14:01:40.436Z,36.20
2019-02-23T14:05:08.945Z,36.50
2019-02-23T14:08:29.655Z,38.20
2019-02-23T14:11:32.092Z,36.30
2019-02-23T14:14:45.485Z,37.40
2019-02-23T14:17:46.829Z,38.00
2019-02-23T14:20:47.059Z,36.60
2019-02-23T14:24:18.392Z,35.50
2019-02-23T14:27:36.090Z,37.20
2019-02-23T14:31:03.250Z,33.60
2019-02-23T14:33:52.310Z,33.90
2019-02-23T14:36:43.999Z,34.10
2019-02-23T14:40:13.922Z,34.70
2019-02-23T14:43:58.702Z,34.50
2019-02-23T14:47:24.056Z,34.60
2019-02-23T14:50:35.524Z,35.00
2019-02-23T14:53:51.919Z,34.40
2019-02-23T14:57:14.933Z,34.00
2019-02-23T15:00:42.982Z,35.20
2019-02-23T15:04:04.687Z,35.80
2019-02-23T15:07:20.337Z,36.20
2019-02-23T15:10:31.197Z,34.70
2019-02-23T15:13:32.181Z,36.40
2019-02-23T15:17:00.257Z,36.60
2019-02-23T15:20:06.012Z,35.80
2019-02-23T15:23:28.355Z,35.70
2019-02-23T15:26:32.458Z,37.20
2019-02-23T15:29:29.464Z,38.00
2019-02-23T15:32:40.947Z,38.70
2019-02-23T15:35:28.031Z,38.60
2019-02-23T15:38:26.608Z,40.60
2019-02-23T15:41:45.515Z,39.00
2019-02-23T15:45:14.086Z,38.50
2019-02-23T15:48:38.925Z,38.80
2019-02-23T15:51:11.222Z,40.80
2019-02-23T15:53:46.098Z,41.40
2019-02-23T15:56:18.316Z,40.80
2019-02-23T15:58:52.132Z,39.90
2019-02-23T16:01:25.359Z,40.90
2019-02-23T16:03:59.120Z,42.00
2019-02-23T16:06:31.769Z,41.00
2019-02-23T16:09:06.471Z,41.30
2019-02-23T16:11:39.712Z,42.30
2019-02-23T16:14:12.858Z,43.80
2019-02-23T16:16:47.420Z,43.40
2019-02-23T16:19:20.676Z,42.60
2019-02-23T16:21:53.151Z,42.20
2019-02-23T16:24:26.088Z,43.10
2019-02-23T16:26:58.337Z,44.10
2019-02-23T16:29:38.704Z,44.10
2019-02-23T16:32:07.969Z,43.50
2019-02-23T16:34:41.807Z,44.20
2019-02-23T16:37:14.058Z,46.10
2019-02-23T16:39:46.255Z,45.60
2019-02-23T16:42:22.128Z,45.80
2019-02-23T16:44:54.134Z,45.20
2019-02-23T16:47:26.213Z,45.90
2019-02-23T16:49:58.199Z,45.90
2019-02-23T16:52:31.310Z,46.40
2019-02-23T16:55:04.421Z,45.00
2019-02-23T16:57:36.635Z,43.40
2019-02-23T17:00:09.350Z,44.10
2019-02-23T17:02:44.434Z,45.50
2019-02-23T17:05:16.735Z,45.80
2019-02-23T17:07:48.759Z,45.40
2019-02-23T17:10:21.041Z,44.90
2019-02-23T17:12:53.175Z,45.40
2019-02-23T17:15:26.461Z,44.90
2019-02-23T17:17:58.888Z,44.60
2019-02-23T17:20:31.063Z,44.80
2019-02-23T17:23:03.394Z,44.60
2019-02-23T17:25:36.410Z,44.90
2019-02-23T17:28:09.912Z,44.40
2019-02-23T17:30:42.490Z,45.70
2019-02-23T17:33:18.913Z,45.50
2019-02-23T17:35:51.125Z,45.90
2019-02-23T17:38:23.203Z,45.10
2019-02-23T17:40:57.739Z,44.80
2019-02-23T17:43:29.924Z,45.00
2019-02-23T17:46:04.293Z,44.50
2019-02-23T17:48:36.896Z,42.80
2019-02-23T17:51:09.369Z,42.90
2019-02-23T17:53:42.833Z,42.50
2019-02-23T17:56:16.033Z,42.90
2019-02-23T17:58:49.490Z,43.70
2019-02-23T18:01:21.614Z,45.20
2019-02-23T18:03:53.922Z,46.10
2019-02-23T18:06:28.026Z,46.70
2019-02-23T18:09:01.250Z,45.90
2019-02-23T18:11:35.105Z,45.10
2019-02-23T18:14:09.346Z,46.50
2019-02-23T18:16:41.563Z,49.20
2019-02-23T18:19:14.883Z,48.50
2019-02-23T18:21:46.911Z,48.00
2019-02-23T18:24:18.796Z,48.80
2019-02-23T18:26:53.661Z,47.50
2019-02-23T18:29:26.446Z,48.50
2019-02-23T18:31:59.032Z,49.00
2019-02-23T18:34:32.126Z,49.90
2019-02-23T18:37:06.726Z,50.30
2019-02-23T18:39:38.630Z,50.20
2019-02-23T18:42:12.423Z,50.10
2019-02-23T18:44:44.370Z,50.60
2019-02-23T18:47:17.645Z,51.00
2019-02-23T18:49:49.691Z,50.80
2019-02-23T18:52:21.755Z,51.40
2019-02-23T18:54:54.831Z,51.00
2019-02-23T18:57:27.975Z,51.30
2019-02-23T19:00:00.272Z,52.10
2019-02-23T19:02:34.705Z,52.70
2019-02-23T19:05:08.656Z,51.70
2019-02-23T19:07:42.530Z,52.40
2019-02-23T19:10:14.636Z,52.30
2019-02-23T19:12:48.043Z,54.50
2019-02-23T19:15:19.549Z,54.20
2019-02-23T19:17:51.430Z,53.70
2019-02-23T19:20:23.314Z,54.50
2019-02-23T19:22:55.442Z,53.30
2019-02-23T19:25:27.329Z,55.30
2019-02-23T19:27:59.338Z,55.00
2019-02-23T19:30:32.237Z,54.10
2019-02-23T19:33:04.151Z,53.40
2019-02-23T19:35:36.069Z,53.70
2019-02-23T19:38:07.938Z,53.70
2019-02-23T19:40:39.824Z,54.40
2019-02-23T19:43:12.691Z,54.00
2019-02-23T19:45:44.585Z,54.20
2019-02-23T19:48:16.492Z,54.10
2019-02-23T19:50:52.030Z,54.00
2019-02-23T19:53:23.965Z,54.10
2019-02-23T19:55:55.831Z,54.00
2019-02-23T19:58:27.712Z,55.00
2019-02-23T20:00:59.643Z,54.10
2019-02-23T20:03:31.489Z,54.50
2019-02-23T20:06:03.391Z,55.10
2019-02-23T20:08:35.253Z,54.50
2019-02-23T20:11:07.129Z,55.00
2019-02-23T20:13:39.091Z,55.30
2019-02-23T20:16:11.004Z,56.30
2019-02-23T20:18:42.906Z,56.70
2019-02-23T20:21:14.864Z,56.40
2019-02-23T20:23:48.016Z,57.00
2019-02-23T20:26:20.004Z,56.40
2019-02-23T20:28:51.949Z,56.70
2019-02-23T20:31:23.871Z,56.70
2019-02-23T20:33:55.739Z,56.90
2019-02-23T20:36:27.578Z,56.90
2019-02-23T20:38:59.485Z,56.90
2019-02-23T20:41:32.903Z,56.80
2019-02-23T20:44:04.814Z,56.80
2019-02-23T20:46:36.740Z,56.70
2019-02-23T20:49:08.654Z,57.10
2019-02-23T20:51:40.565Z,57.60
2019-02-23T20:54:12.475Z,57.60
2019-02-23T20:56:44.268Z,57.40
2019-02-23T20:59:16.140Z,56.60
2019-02-23T21:01:48.069Z,56.50
2019-02-23T21:04:20.958Z,56.00
2019-02-23T21:06:52.840Z,55.80
2019-02-23T21:09:26.407Z,55.40
2019-02-23T21:11:58.467Z,56.10
2019-02-23T21:14:30.555Z,56.30
2019-02-23T21:17:02.389Z,56.00
2019-02-23T21:19:34.308Z,57.20
2019-02-23T21:22:06.209Z,58.00
2019-02-23T21:24:38.140Z,57.30
2019-02-23T21:27:13.013Z,57.00
2019-02-23T21:29:43.507Z,57.80
2019-02-23T21:32:15.362Z,56.40
2019-02-23T21:34:47.255Z,56.00
2019-02-23T21:37:22.110Z,56.40
2019-02-23T21:39:53.989Z,56.50
2019-02-23T21:42:25.858Z,56.80
2019-02-23T21:44:58.015Z,57.90
2019-02-23T21:47:29.941Z,58.00
2019-02-23T21:50:01.843Z,58.60
2019-02-23T21:52:36.049Z,58.90
2019-02-23T21:55:09.244Z,58.70
2019-02-23T21:57:41.168Z,59.40
2019-02-23T22:00:13.065Z,59.80
2019-02-23T22:02:45.199Z,60.10
2019-02-23T22:05:17.075Z,61.20
2019-02-23T22:07:49.987Z,60.70
2019-02-23T22:10:21.858Z,60.40
2019-02-23T22:12:53.784Z,61.50
2019-02-23T22:15:25.710Z,60.80
2019-02-23T22:17:57.623Z,60.80
2019-02-23T22:20:30.483Z,60.30
2019-02-23T22:23:03.407Z,61.00
2019-02-23T22:25:35.247Z,62.30
2019-02-23T22:28:08.119Z,63.50
2019-02-23T22:30:40.075Z,62.20
2019-02-23T22:33:13.165Z,63.30
2019-02-23T22:35:45.096Z,63.60
2019-02-23T22:38:16.875Z,64.10
2019-02-23T22:40:48.791Z,65.40
2019-02-23T22:43:20.672Z,65.60
2019-02-23T22:45:52.584Z,65.20
2019-02-23T22:48:24.492Z,67.20
2019-02-23T22:50:56.291Z,66.10
2019-02-23T22:53:28.149Z,67.10
2019-02-23T22:56:00.001Z,69.80
2019-02-23T22:58:32.972Z,70.60
2019-02-23T23:01:07.319Z,71.20
2019-02-23T23:03:40.740Z,72.20
2019-02-23T23:06:12.627Z,73.00
2019-02-23T23:08:45.559Z,73.70
2019-02-23T23:11:17.484Z,74.60
2019-02-23T23:13:49.385Z,76.80
2019-02-23T23:16:22.603Z,77.80
2019-02-23T23:18:55.479Z,79.20
2019-02-23T23:21:27.597Z,81.40
2019-02-23T23:23:59.498Z,82.80
2019-02-23T23:26:34.967Z,84.10
2019-02-23T23:29:07.867Z,84.90
2019-02-23T23:31:45.097Z,85.70
2019-02-23T23:34:18.307Z,89.70
2019-02-23T23:36:51.379Z,89.80
2019-02-23T23:39:23.383Z,89.30
2019-02-23T23:41:58.138Z,86.80
2019-02-23T23:44:30.223Z,87.70
2019-02-23T23:47:03.179Z,84.00
2019-02-23T23:49:37.629Z,81.60
2019-02-23T23:52:09.614Z,80.90
2019-02-23T23:54:41.436Z,80.60
2019-02-23T23:57:13.327Z,79.60
2019-02-23T23:59:45.214Z,80.00
